sensor_id;sensor_type;location;lat;lon;timestamp;temperature;humidity
21590;DHT22;10957;50.968;6.828;2022-09-09T00:03:59;16.00;99.90
21590;DHT22;10957;50.968;6.828;2022-09-09T00:14:17;15.90;99.90
21590;DHT22;10957;50.968;6.828;2022-09-09T00:19:24;15.90;99.90
21590;DHT22;10957;50.968;6.828;2022-09-09T00:24:30;15.60;99.90
21590;DHT22;10957;50.968;6.828;2022-09-09T00:34:52;16.10;99.90
21590;DHT22;10957;50.968;6.828;2022-09-09T00:39:58;16.10;99.90
21590;DHT22;10957;50.968;6.828;2022-09-09T00:50:53;16.10;99.90
21590;DHT22;10957;50.968;6.828;2022-09-09T00:56:14;16.10;99.90
21590;DHT22;10957;50.968;6.828;2022-09-09T01:01:17;16.10;99.90
21590;DHT22;10957;50.968;6.828;2022-09-09T01:06:29;15.80;99.90
21590;DHT22;10957;50.968;6.828;2022-09-09T01:16:45;16.00;99.90
21590;DHT22;10957;50.968;6.828;2022-09-09T01:22:00;15.90;99.90
21590;DHT22;10957;50.968;6.828;2022-09-09T01:27:08;15.80;99.90
21590;DHT22;10957;50.968;6.828;2022-09-09T01:32:44;15.30;99.90
21590;DHT22;10957;50.968;6.828;2022-09-09T01:37:47;15.50;99.90
21590;DHT22;10957;50.968;6.828;2022-09-09T01:42:48;15.20;99.90
21590;DHT22;10957;50.968;6.828;2022-09-09T01:47:49;15.20;99.90
21590;DHT22;10957;50.968;6.828;2022-09-09T01:52:58;15.50;99.90
21590;DHT22;10957;50.968;6.828;2022-09-09T01:58:11;15.40;99.90
21590;DHT22;10957;50.968;6.828;2022-09-09T02:03:25;15.40;99.90
21590;DHT22;10957;50.968;6.828;2022-09-09T02:08:42;15.30;99.90
21590;DHT22;10957;50.968;6.828;2022-09-09T02:13:51;15.20;99.90
21590;DHT22;10957;50.968;6.828;2022-09-09T02:19:10;15.60;99.90
21590;DHT22;10957;50.968;6.828;2022-09-09T02:24:35;15.70;99.90
21590;DHT22;10957;50.968;6.828;2022-09-09T02:29:46;15.30;99.90
21590;DHT22;10957;50.968;6.828;2022-09-09T02:35:00;15.50;99.90
21590;DHT22;10957;50.968;6.828;2022-09-09T02:40:09;15.80;99.90
21590;DHT22;10957;50.968;6.828;2022-09-09T02:45:16;15.70;99.90
21590;DHT22;10957;50.968;6.828;2022-09-09T02:55:46;15.90;99.90
21590;DHT22;10957;50.968;6.828;2022-09-09T03:00:51;15.70;99.90
21590;DHT22;10957;50.968;6.828;2022-09-09T03:05:54;15.40;99.90
21590;DHT22;10957;50.968;6.828;2022-09-09T03:10:55;15.60;99.90
21590;DHT22;10957;50.968;6.828;2022-09-09T03:16:01;16.00;99.90
21590;DHT22;10957;50.968;6.828;2022-09-09T03:21:05;15.90;99.90
21590;DHT22;10957;50.968;6.828;2022-09-09T03:26:08;15.90;99.90
21590;DHT22;10957;50.968;6.828;2022-09-09T03:31:18;16.00;99.90
21590;DHT22;10957;50.968;6.828;2022-09-09T03:36:20;15.90;99.90
21590;DHT22;10957;50.968;6.828;2022-09-09T03:41:22;15.90;99.90
21590;DHT22;10957;50.968;6.828;2022-09-09T03:46:25;16.00;99.90
21590;DHT22;10957;50.968;6.828;2022-09-09T03:51:27;16.00;99.90
21590;DHT22;10957;50.968;6.828;2022-09-09T03:56:28;16.10;99.90
21590;DHT22;10957;50.968;6.828;2022-09-09T04:01:30;16.00;99.90
21590;DHT22;10957;50.968;6.828;2022-09-09T04:06:31;16.10;99.90
21590;DHT22;10957;50.968;6.828;2022-09-09T04:11:32;16.00;99.90
21590;DHT22;10957;50.968;6.828;2022-09-09T04:16:34;16.10;99.90
21590;DHT22;10957;50.968;6.828;2022-09-09T04:21:36;16.10;99.90
21590;DHT22;10957;50.968;6.828;2022-09-09T04:26:37;15.90;99.90
21590;DHT22;10957;50.968;6.828;2022-09-09T04:31:38;16.10;99.90
21590;DHT22;10957;50.968;6.828;2022-09-09T04:36:42;16.10;99.90
21590;DHT22;10957;50.968;6.828;2022-09-09T04:41:44;16.10;99.90
21590;DHT22;10957;50.968;6.828;2022-09-09T04:46:45;16.10;99.90
21590;DHT22;10957;50.968;6.828;2022-09-09T04:51:48;16.00;99.90
21590;DHT22;10957;50.968;6.828;2022-09-09T04:56:51;15.90;99.90
21590;DHT22;10957;50.968;6.828;2022-09-09T05:01:53;16.10;99.90
21590;DHT22;10957;50.968;6.828;2022-09-09T05:06:55;16.10;99.90
21590;DHT22;10957;50.968;6.828;2022-09-09T05:11:57;16.20;99.90
21590;DHT22;10957;50.968;6.828;2022-09-09T05:17:04;16.20;99.90
21590;DHT22;10957;50.968;6.828;2022-09-09T05:22:06;16.30;99.90
21590;DHT22;10957;50.968;6.828;2022-09-09T05:27:15;16.20;99.90
21590;DHT22;10957;50.968;6.828;2022-09-09T05:32:16;16.10;99.90
21590;DHT22;10957;50.968;6.828;2022-09-09T05:37:20;16.40;99.90
21590;DHT22;10957;50.968;6.828;2022-09-09T05:42:21;16.40;99.90
21590;DHT22;10957;50.968;6.828;2022-09-09T05:47:22;16.50;99.90
21590;DHT22;10957;50.968;6.828;2022-09-09T05:52:24;16.60;99.90
21590;DHT22;10957;50.968;6.828;2022-09-09T05:57:26;16.60;99.90
21590;DHT22;10957;50.968;6.828;2022-09-09T06:02:27;16.60;99.90
21590;DHT22;10957;50.968;6.828;2022-09-09T06:07:29;16.70;99.90
21590;DHT22;10957;50.968;6.828;2022-09-09T06:12:29;16.80;99.90
21590;DHT22;10957;50.968;6.828;2022-09-09T06:17:30;16.80;99.90
21590;DHT22;10957;50.968;6.828;2022-09-09T06:22:31;16.80;99.90
21590;DHT22;10957;50.968;6.828;2022-09-09T06:27:32;16.80;99.90
21590;DHT22;10957;50.968;6.828;2022-09-09T06:32:34;16.70;99.90
21590;DHT22;10957;50.968;6.828;2022-09-09T06:37:38;16.70;99.90
21590;DHT22;10957;50.968;6.828;2022-09-09T06:42:39;16.80;99.90
21590;DHT22;10957;50.968;6.828;2022-09-09T06:48:09;17.10;99.90
21590;DHT22;10957;50.968;6.828;2022-09-09T06:53:09;17.30;99.90
21590;DHT22;10957;50.968;6.828;2022-09-09T06:58:11;17.60;99.90
21590;DHT22;10957;50.968;6.828;2022-09-09T07:03:12;17.80;99.90
21590;DHT22;10957;50.968;6.828;2022-09-09T07:08:13;18.00;99.90
21590;DHT22;10957;50.968;6.828;2022-09-09T07:13:15;18.10;96.40
21590;DHT22;10957;50.968;6.828;2022-09-09T07:18:16;18.20;92.50
21590;DHT22;10957;50.968;6.828;2022-09-09T07:23:17;18.40;84.90
21590;DHT22;10957;50.968;6.828;2022-09-09T07:28:19;18.50;75.40
21590;DHT22;10957;50.968;6.828;2022-09-09T07:33:20;18.70;66.40
21590;DHT22;10957;50.968;6.828;2022-09-09T07:38:21;18.70;55.30
21590;DHT22;10957;50.968;6.828;2022-09-09T07:43:26;18.90;46.90
21590;DHT22;10957;50.968;6.828;2022-09-09T07:48:29;18.70;45.80
21590;DHT22;10957;50.968;6.828;2022-09-09T07:53:30;19.00;46.30
21590;DHT22;10957;50.968;6.828;2022-09-09T07:58:32;19.00;43.80
21590;DHT22;10957;50.968;6.828;2022-09-09T08:03:33;19.20;35.50
21590;DHT22;10957;50.968;6.828;2022-09-09T08:08:35;19.10;27.70
21590;DHT22;10957;50.968;6.828;2022-09-09T08:13:38;18.60;24.30
21590;DHT22;10957;50.968;6.828;2022-09-09T08:18:39;18.50;29.10
21590;DHT22;10957;50.968;6.828;2022-09-09T08:23:41;18.60;30.70
21590;DHT22;10957;50.968;6.828;2022-09-09T08:28:44;18.70;32.00
21590;DHT22;10957;50.968;6.828;2022-09-09T08:33:45;18.90;30.70
21590;DHT22;10957;50.968;6.828;2022-09-09T08:38:51;19.30;23.20
21590;DHT22;10957;50.968;6.828;2022-09-09T08:44:14;19.50;23.40
21590;DHT22;10957;50.968;6.828;2022-09-09T09:00:44;19.50;9.90
21590;DHT22;10957;50.968;6.828;2022-09-09T09:11:17;19.90;5.90
21590;DHT22;10957;50.968;6.828;2022-09-09T09:16:28;20.00;5.00
21590;DHT22;10957;50.968;6.828;2022-09-09T09:21:41;19.80;5.60
21590;DHT22;10957;50.968;6.828;2022-09-09T09:26:46;19.80;8.70
21590;DHT22;10957;50.968;6.828;2022-09-09T09:31:53;19.70;8.10
21590;DHT22;10957;50.968;6.828;2022-09-09T09:36:58;19.70;10.50
21590;DHT22;10957;50.968;6.828;2022-09-09T09:42:10;19.50;8.60
21590;DHT22;10957;50.968;6.828;2022-09-09T09:47:17;19.50;13.70
21590;DHT22;10957;50.968;6.828;2022-09-09T09:52:27;19.70;12.50
21590;DHT22;10957;50.968;6.828;2022-09-09T09:57:30;20.10;12.10
21590;DHT22;10957;50.968;6.828;2022-09-09T10:02:38;20.30;6.30
21590;DHT22;10957;50.968;6.828;2022-09-09T10:07:44;20.50;10.50
21590;DHT22;10957;50.968;6.828;2022-09-09T10:23:41;20.90;8.50
21590;DHT22;10957;50.968;6.828;2022-09-09T10:39:36;20.50;8.30
21590;DHT22;10957;50.968;6.828;2022-09-09T10:44:56;20.50;7.80
21590;DHT22;10957;50.968;6.828;2022-09-09T10:55:39;20.50;3.00
21590;DHT22;10957;50.968;6.828;2022-09-09T11:00:48;21.00;1.70
21590;DHT22;10957;50.968;6.828;2022-09-09T11:06:10;20.80;5.10
21590;DHT22;10957;50.968;6.828;2022-09-09T11:11:30;20.50;3.50
21590;DHT22;10957;50.968;6.828;2022-09-09T11:16:49;20.80;5.50
21590;DHT22;10957;50.968;6.828;2022-09-09T11:21:52;20.70;2.20
21590;DHT22;10957;50.968;6.828;2022-09-09T11:42:23;20.90;2.40
21590;DHT22;10957;50.968;6.828;2022-09-09T11:47:27;21.20;1.00
21590;DHT22;10957;50.968;6.828;2022-09-09T11:52:41;20.90;1.00
21590;DHT22;10957;50.968;6.828;2022-09-09T11:57:44;20.90;1.00
21590;DHT22;10957;50.968;6.828;2022-09-09T12:02:49;20.80;1.00
21590;DHT22;10957;50.968;6.828;2022-09-09T12:07:57;20.30;1.00
21590;DHT22;10957;50.968;6.828;2022-09-09T12:13:23;20.30;3.30
21590;DHT22;10957;50.968;6.828;2022-09-09T12:18:35;20.10;3.60
21590;DHT22;10957;50.968;6.828;2022-09-09T12:29:31;20.60;1.60
21590;DHT22;10957;50.968;6.828;2022-09-09T12:34:55;20.70;1.60
21590;DHT22;10957;50.968;6.828;2022-09-09T12:40:00;20.10;3.60
21590;DHT22;10957;50.968;6.828;2022-09-09T12:45:15;19.40;22.30
21590;DHT22;10957;50.968;6.828;2022-09-09T12:50:22;18.70;70.40
21590;DHT22;10957;50.968;6.828;2022-09-09T12:55:32;18.80;99.90
21590;DHT22;10957;50.968;6.828;2022-09-09T13:00:34;19.30;99.90
21590;DHT22;10957;50.968;6.828;2022-09-09T13:05:36;19.40;99.90
21590;DHT22;10957;50.968;6.828;2022-09-09T13:10:51;19.90;98.20
21590;DHT22;10957;50.968;6.828;2022-09-09T13:15:59;20.50;86.20
21590;DHT22;10957;50.968;6.828;2022-09-09T13:21:01;20.00;60.60
21590;DHT22;10957;50.968;6.828;2022-09-09T13:26:19;19.70;72.50
21590;DHT22;10957;50.968;6.828;2022-09-09T13:31:35;19.70;61.80
21590;DHT22;10957;50.968;6.828;2022-09-09T13:36:36;20.30;67.60
21590;DHT22;10957;50.968;6.828;2022-09-09T13:41:42;20.00;48.00
21590;DHT22;10957;50.968;6.828;2022-09-09T13:46:44;19.80;45.20
21590;DHT22;10957;50.968;6.828;2022-09-09T13:51:48;20.10;51.30
21590;DHT22;10957;50.968;6.828;2022-09-09T13:56:49;20.10;34.70
21590;DHT22;10957;50.968;6.828;2022-09-09T14:01:50;19.80;30.00
21590;DHT22;10957;50.968;6.828;2022-09-09T14:06:53;19.60;41.80
21590;DHT22;10957;50.968;6.828;2022-09-09T14:11:55;19.40;79.50
21590;DHT22;10957;50.968;6.828;2022-09-09T14:16:55;19.40;72.30
21590;DHT22;10957;50.968;6.828;2022-09-09T14:21:57;19.10;69.50
21590;DHT22;10957;50.968;6.828;2022-09-09T14:26:58;18.20;99.90
21590;DHT22;10957;50.968;6.828;2022-09-09T14:31:59;17.70;99.90
21590;DHT22;10957;50.968;6.828;2022-09-09T14:37:01;17.70;99.90
21590;DHT22;10957;50.968;6.828;2022-09-09T14:42:02;17.50;99.90
21590;DHT22;10957;50.968;6.828;2022-09-09T14:47:03;17.80;99.90
21590;DHT22;10957;50.968;6.828;2022-09-09T14:52:04;18.10;99.90
21590;DHT22;10957;50.968;6.828;2022-09-09T14:57:05;18.30;99.90
21590;DHT22;10957;50.968;6.828;2022-09-09T15:02:08;18.40;99.90
21590;DHT22;10957;50.968;6.828;2022-09-09T15:07:09;18.30;99.90
21590;DHT22;10957;50.968;6.828;2022-09-09T15:12:11;18.50;99.90
21590;DHT22;10957;50.968;6.828;2022-09-09T15:17:12;18.80;99.90
21590;DHT22;10957;50.968;6.828;2022-09-09T15:22:13;18.60;99.90
21590;DHT22;10957;50.968;6.828;2022-09-09T15:27:14;18.50;99.90
21590;DHT22;10957;50.968;6.828;2022-09-09T15:32:15;18.50;99.90
21590;DHT22;10957;50.968;6.828;2022-09-09T15:37:16;18.90;99.90
21590;DHT22;10957;50.968;6.828;2022-09-09T15:42:17;18.70;99.90
21590;DHT22;10957;50.968;6.828;2022-09-09T15:47:18;19.20;99.90
21590;DHT22;10957;50.968;6.828;2022-09-09T15:52:18;19.20;99.90
21590;DHT22;10957;50.968;6.828;2022-09-09T15:57:19;19.20;99.90
21590;DHT22;10957;50.968;6.828;2022-09-09T16:02:20;19.10;99.90
21590;DHT22;10957;50.968;6.828;2022-09-09T16:07:21;18.90;99.90
21590;DHT22;10957;50.968;6.828;2022-09-09T16:12:21;18.70;99.90
21590;DHT22;10957;50.968;6.828;2022-09-09T16:17:22;18.30;99.90
21590;DHT22;10957;50.968;6.828;2022-09-09T16:22:23;18.20;99.90
21590;DHT22;10957;50.968;6.828;2022-09-09T16:27:25;18.00;99.90
21590;DHT22;10957;50.968;6.828;2022-09-09T16:32:25;18.10;99.90
21590;DHT22;10957;50.968;6.828;2022-09-09T16:37:26;18.20;99.90
21590;DHT22;10957;50.968;6.828;2022-09-09T16:42:28;18.10;99.90
21590;DHT22;10957;50.968;6.828;2022-09-09T16:47:29;18.10;99.90
21590;DHT22;10957;50.968;6.828;2022-09-09T16:52:30;18.10;99.90
21590;DHT22;10957;50.968;6.828;2022-09-09T16:57:31;18.10;99.90
21590;DHT22;10957;50.968;6.828;2022-09-09T17:02:32;17.90;99.90
21590;DHT22;10957;50.968;6.828;2022-09-09T17:07:32;17.90;99.90
21590;DHT22;10957;50.968;6.828;2022-09-09T17:12:33;17.90;99.90
21590;DHT22;10957;50.968;6.828;2022-09-09T17:17:35;17.80;99.90
21590;DHT22;10957;50.968;6.828;2022-09-09T17:22:36;17.90;99.90
21590;DHT22;10957;50.968;6.828;2022-09-09T17:27:37;17.70;99.90
21590;DHT22;10957;50.968;6.828;2022-09-09T17:32:38;17.70;99.90
21590;DHT22;10957;50.968;6.828;2022-09-09T17:37:39;17.60;99.90
21590;DHT22;10957;50.968;6.828;2022-09-09T17:42:40;17.60;99.90
21590;DHT22;10957;50.968;6.828;2022-09-09T17:47:41;17.50;99.90
21590;DHT22;10957;50.968;6.828;2022-09-09T17:52:43;17.50;99.90
21590;DHT22;10957;50.968;6.828;2022-09-09T17:57:44;17.40;99.90
21590;DHT22;10957;50.968;6.828;2022-09-09T18:02:45;17.40;99.90
21590;DHT22;10957;50.968;6.828;2022-09-09T18:07:45;17.30;99.90
21590;DHT22;10957;50.968;6.828;2022-09-09T18:12:46;17.30;99.90
21590;DHT22;10957;50.968;6.828;2022-09-09T18:17:47;17.20;99.90
21590;DHT22;10957;50.968;6.828;2022-09-09T18:22:47;17.20;99.90
21590;DHT22;10957;50.968;6.828;2022-09-09T18:27:48;17.10;99.90
21590;DHT22;10957;50.968;6.828;2022-09-09T18:32:49;17.10;99.90
21590;DHT22;10957;50.968;6.828;2022-09-09T18:37:52;16.90;99.90
21590;DHT22;10957;50.968;6.828;2022-09-09T18:42:54;16.80;99.90
21590;DHT22;10957;50.968;6.828;2022-09-09T18:47:55;16.80;99.90
21590;DHT22;10957;50.968;6.828;2022-09-09T18:52:56;16.70;99.90
21590;DHT22;10957;50.968;6.828;2022-09-09T18:57:57;16.70;99.90
21590;DHT22;10957;50.968;6.828;2022-09-09T19:02:58;16.70;99.90
21590;DHT22;10957;50.968;6.828;2022-09-09T19:07:59;16.60;99.90
21590;DHT22;10957;50.968;6.828;2022-09-09T19:13:00;16.20;99.90
21590;DHT22;10957;50.968;6.828;2022-09-09T19:18:00;16.40;99.90
21590;DHT22;10957;50.968;6.828;2022-09-09T19:23:01;16.30;99.90
21590;DHT22;10957;50.968;6.828;2022-09-09T19:28:03;16.20;99.90
21590;DHT22;10957;50.968;6.828;2022-09-09T19:33:05;16.10;99.90
21590;DHT22;10957;50.968;6.828;2022-09-09T19:38:06;16.00;99.90
21590;DHT22;10957;50.968;6.828;2022-09-09T19:43:07;15.90;99.90
21590;DHT22;10957;50.968;6.828;2022-09-09T19:48:08;16.00;99.90
21590;DHT22;10957;50.968;6.828;2022-09-09T19:53:09;15.80;99.90
21590;DHT22;10957;50.968;6.828;2022-09-09T19:58:09;15.80;99.90
21590;DHT22;10957;50.968;6.828;2022-09-09T20:03:10;15.70;99.90
21590;DHT22;10957;50.968;6.828;2022-09-09T20:08:11;15.70;99.90
21590;DHT22;10957;50.968;6.828;2022-09-09T20:13:11;15.70;99.90
21590;DHT22;10957;50.968;6.828;2022-09-09T20:18:12;15.70;99.90
21590;DHT22;10957;50.968;6.828;2022-09-09T20:23:13;15.30;99.90
21590;DHT22;10957;50.968;6.828;2022-09-09T20:28:15;15.30;99.90
21590;DHT22;10957;50.968;6.828;2022-09-09T20:33:16;15.80;99.90
21590;DHT22;10957;50.968;6.828;2022-09-09T20:38:18;15.80;99.90
21590;DHT22;10957;50.968;6.828;2022-09-09T20:43:18;16.10;99.90
21590;DHT22;10957;50.968;6.828;2022-09-09T20:48:19;15.80;99.90
21590;DHT22;10957;50.968;6.828;2022-09-09T20:53:20;15.80;99.90
21590;DHT22;10957;50.968;6.828;2022-09-09T20:58:22;15.90;99.90
21590;DHT22;10957;50.968;6.828;2022-09-09T21:03:23;15.80;99.90
21590;DHT22;10957;50.968;6.828;2022-09-09T21:08:25;15.40;99.90
21590;DHT22;10957;50.968;6.828;2022-09-09T21:13:31;15.60;99.90
21590;DHT22;10957;50.968;6.828;2022-09-09T21:18:32;15.70;99.90
21590;DHT22;10957;50.968;6.828;2022-09-09T21:23:34;15.50;99.90
21590;DHT22;10957;50.968;6.828;2022-09-09T21:28:35;15.30;99.90
21590;DHT22;10957;50.968;6.828;2022-09-09T21:33:36;15.30;99.90
21590;DHT22;10957;50.968;6.828;2022-09-09T21:38:38;15.70;99.90
21590;DHT22;10957;50.968;6.828;2022-09-09T21:43:41;15.50;99.90
21590;DHT22;10957;50.968;6.828;2022-09-09T21:48:43;15.50;99.90
21590;DHT22;10957;50.968;6.828;2022-09-09T21:53:44;15.60;99.90
21590;DHT22;10957;50.968;6.828;2022-09-09T21:58:45;15.70;99.90
21590;DHT22;10957;50.968;6.828;2022-09-09T22:03:46;15.20;99.90
21590;DHT22;10957;50.968;6.828;2022-09-09T22:08:47;15.50;99.90
21590;DHT22;10957;50.968;6.828;2022-09-09T22:13:48;15.70;99.90
21590;DHT22;10957;50.968;6.828;2022-09-09T22:18:55;15.20;99.90
21590;DHT22;10957;50.968;6.828;2022-09-09T22:23:59;15.50;99.90
21590;DHT22;10957;50.968;6.828;2022-09-09T22:29:00;15.90;99.90
21590;DHT22;10957;50.968;6.828;2022-09-09T22:34:04;15.50;99.90
21590;DHT22;10957;50.968;6.828;2022-09-09T22:39:05;15.20;99.90
21590;DHT22;10957;50.968;6.828;2022-09-09T22:44:06;15.30;99.90
21590;DHT22;10957;50.968;6.828;2022-09-09T22:49:08;15.00;99.90
21590;DHT22;10957;50.968;6.828;2022-09-09T22:54:10;15.00;99.90
21590;DHT22;10957;50.968;6.828;2022-09-09T22:59:11;14.70;99.90
21590;DHT22;10957;50.968;6.828;2022-09-09T23:04:12;14.70;99.90
21590;DHT22;10957;50.968;6.828;2022-09-09T23:09:13;15.20;99.90
21590;DHT22;10957;50.968;6.828;2022-09-09T23:14:14;15.20;99.90
21590;DHT22;10957;50.968;6.828;2022-09-09T23:19:15;15.00;99.90
21590;DHT22;10957;50.968;6.828;2022-09-09T23:24:16;15.30;99.90
21590;DHT22;10957;50.968;6.828;2022-09-09T23:29:18;15.10;99.90
21590;DHT22;10957;50.968;6.828;2022-09-09T23:34:19;15.30;99.90
21590;DHT22;10957;50.968;6.828;2022-09-09T23:39:20;15.40;99.90
21590;DHT22;10957;50.968;6.828;2022-09-09T23:44:22;15.30;99.90
21590;DHT22;10957;50.968;6.828;2022-09-09T23:49:23;15.40;99.90
21590;DHT22;10957;50.968;6.828;2022-09-09T23:54:26;14.70;99.90
21590;DHT22;10957;50.968;6.828;2022-09-09T23:59:27;14.80;99.90
